Kezdőlap
METAR-TAF:

METAR-TAF

Repülőterek :

Dzsidda, Szaúd-Arábia

földrajzi szélesség: 21-42N, földrajzi hosszúság: 039-11E, magasság: 15 m

Jelenlegi meteorológiai megfigyelések

A jelentés 19 perccel ezelõtt készült, 11:00 UTC
Északnyugati szél 12 kt
Hőmérséklet 29°C
Páratartalom 31%
Légköri nyomás 1015 hPa
Látótávolság 10 km, vagy több
Kevés felhő 3000 lábon

METAR: OEJN 161100Z 32012KT 9999 FEW030 29/10 Q1015 NOSIG

Idő: 14:19 (11:19 UTC)

Előrejelzés

A jelentés 6 órával és 19 perccel ezelõtt készült, 05:00 UTC
Az előrejelzés 16-én 06 óra UTC és 17-én 12 óra UTC között érvényes
Északi szél 8 kt széllökések: 18 kt
Látótávolság 10 km, vagy több
Kevés felhő 4000 lábon

TAF: OEJN 160500Z 1606/1712 35008G18KT 9999 FEW040

Meteorológiai megfigyelések és előrejelzések több, mint 4000 repülőtéren (METAR és TAF jelentéseket).

A térképen piros és sárga pontok jelzik az elérhető meteorológiai állomásokat.

Mozgassa az egeret a pont fölött, hogy megjelenjen az állomás neve.

Azután kattintson az időjárási megfigyelések és előrejelzések megtekintéséhez.

A térkép megváltoztatása: kattintson a fekete keresztel jelölt zöld gombra ráközelítéshez, a vonallal jelölt zöld gombra távolításhoz, vagy a zöld nyilakra a szomszédos térképek eléréséhez.


METAR-TAF: